EDT,Max TemperatureF,Mean TemperatureF,Min TemperatureF,Max Dew PointF,MeanDew PointF,Min DewpointF,Max Humidity, Mean Humidity, Min Humidity, Max Sea Level PressureIn, Mean Sea Level PressureIn, Min Sea Level PressureIn, Max VisibilityMiles, Mean VisibilityMiles, Min VisibilityMiles, Max Wind SpeedMPH, Mean Wind SpeedMPH, Max Gust SpeedMPH,PrecipitationIn, CloudCover, Events, WindDirDegrees
2013-10-1,81,69,56,63,58,55,100,73,45,30.16,30.10,30.05,10,8,4,7,1,14,0.00,1,,345
2013-10-2,83,70,56,63,59,56,100,71,42,30.16,30.11,30.06,10,8,4,7,1,9,0.00,1,,45
2013-10-3,83,72,61,63,60,57,93,68,43,30.14,30.09,30.06,10,9,6,12,2,14,0.00,0,,169
2013-10-4,85,72,59,66,61,59,100,72,44,30.16,30.11,30.07,10,8,5,6,1,9,0.00,1,,185
2013-10-5,86,73,60,65,62,60,100,72,44,30.13,30.07,30.01,10,8,3,9,2,15,0.00,0,,146
2013-10-6,84,73,61,70,64,60,100,74,47,30.01,29.94,29.86,10,6,1,17,3,21,1.99,5,Rain,360
2013-10-7,73,65,57,65,59,51,100,77,53,29.96,29.89,29.81,10,9,2,17,7,79,0.36,5,Rain,317
2013-10-8,73,65,56,56,54,48,87,72,57,30.14,30.05,29.95,10,10,10,15,6,23,0.00,6,,52
2013-10-9,75,65,55,57,50,42,93,67,40,30.20,30.14,30.10,10,10,9,12,3,18,0.00,1,,73
2013-10-10,79,66,52,57,55,52,100,72,43,30.15,30.08,30.01,10,10,9,17,3,24,0.00,2,,325
2013-10-11,79,65,51,56,53,49,100,68,35,30.06,30.01,29.97,10,9,5,17,5,25,0.00,0,,297
2013-10-12,81,67,52,57,55,51,100,71,42,30.09,30.04,29.99,10,10,7,15,3,20,0.00,0,,311
2013-10-13,81,69,56,62,58,55,100,71,42,30.19,30.13,30.08,10,10,8,10,2,14,0.00,2,,8
2013-10-14,76,70,64,62,60,59,87,74,61,30.23,30.17,30.11,10,10,10,12,4,15,0.00,6,,70
2013-10-15,68,63,58,60,58,56,90,79,68,30.17,30.11,30.05,10,10,10,8,3,14,0.00,8,,89
2013-10-16,74,65,55,63,58,55,100,77,53,30.06,30.02,29.96,10,10,7,7,1,9,0.00,4,,200
2013-10-17,70,65,59,67,64,59,100,91,81,29.98,29.93,29.88,10,6,1,12,4,15,0.58,8,Rain,254
2013-10-18,70,61,51,57,52,48,100,75,49,30.04,29.99,29.94,10,8,1,9,3,13,0.01,2,,289
2013-10-19,62,58,53,57,54,51,100,88,75,29.99,29.96,29.94,10,9,5,12,3,20,0.05,4,Rain,259
2013-10-20,69,57,44,51,43,33,93,60,27,30.08,30.04,29.99,10,10,7,10,2,14,0.00,0,,305
2013-10-21,71,57,43,57,50,42,100,74,47,30.15,30.07,30.03,10,9,6,9,1,26,0.00,1,,162
2013-10-22,70,63,55,58,54,47,93,72,51,30.03,29.94,29.85,10,8,5,9,2,14,T,6,Rain,260
2013-10-23,61,51,40,50,41,33,93,65,36,30.11,29.95,29.85,10,10,9,23,9,33,0.00,0,,294
2013-10-24,63,50,37,41,36,32,92,62,32,30.22,30.17,30.11,10,10,2,14,4,17,0.00,2,,294
2013-10-25,57,46,34,41,30,22,89,58,26,30.40,30.33,30.22,10,10,10,15,7,21,0.00,0,,325
2013-10-26,59,46,32,40,33,30,89,61,33,30.37,30.28,30.19,10,10,8,12,3,16,0.00,0,,167
2013-10-27,67,53,39,54,45,38,100,76,52,30.19,30.15,30.12,10,9,6,12,2,14,T,3,,242
2013-10-28,64,59,53,56,54,53,100,84,67,30.28,30.21,30.13,10,5,0,8,1,20,0.05,7,Fog-Rain,211
2013-10-29,74,63,51,58,54,50,100,77,53,30.33,30.28,30.23,10,5,0,7,1,9,0.00,3,Fog,153
2013-10-30,78,65,52,58,55,52,100,73,46,30.30,30.24,30.17,10,6,1,10,2,15,0.00,0,,197
2013-10-31,75,67,58,61,57,52,84,74,64,30.16,30.03,29.86,10,9,8,21,7,31,T,3,,167